This is the latest recevied weather packets stored in our database for station/object N1KM-15. If no packets are shown the sender has not sent any weather packets the latest 1 day(s).
| Time | Temp. | Humidity | Pressure | Rain* | Wind** | Luminosity | Snow |
|---|---|---|---|---|---|---|---|
| 1778050800 | 12.78° C | 90% | 1010.2 hPa | 0 mm | 1.79 m/s, 154° | - | - |
| 1778049900 | 12.22° C | 90% | 1010.2 hPa | 0 mm | 0.89 m/s, 124° | - | - |
| 1778049000 | 12.22° C | 89% | 1010.1 hPa | 0 mm | 2.24 m/s, 125° | - | - |
| 1778048100 | 12.78° C | 89% | 1010.4 hPa | 0 mm | 0.89 m/s, 86° | - | - |
| 1778047200 | 12.78° C | 88% | 1010.4 hPa | 0 mm | 0 m/s | - | - |
| 1778046300 | 12.78° C | 88% | 1010.5 hPa | 0 mm | 1.34 m/s, 124° | - | - |
| 1778045400 | 12.78° C | 87% | 1010.6 hPa | 0 mm | 1.79 m/s, 163° | - | - |
| 1778044500 | 12.78° C | 87% | 1010.7 hPa | 0 mm | 0.89 m/s, 164° | - | - |
| 1778043600 | 13.33° C | 85% | 1010.7 hPa | 0 mm | 0 m/s | - | - |
| 1778042700 | 13.33° C | 87% | 1010.8 hPa | 0 mm | 1.34 m/s, 151° | - | - |
| 1778041800 | 13.33° C | 85% | 1010.9 hPa | 0 mm | 0.89 m/s, 139° | - | - |
| 1778040900 | 13.33° C | 85% | 1010.7 hPa | 0 mm | 0.89 m/s, 132° | - | - |
| 1778040000 | 12.78° C | 87% | 1010.8 hPa | 0 mm | 2.24 m/s, 175° | - | - |
| 1778039100 | 12.22° C | 87% | 1010.8 hPa | 0 mm | 0.89 m/s, 110° | - | - |
| 1778038200 | 12.22° C | 86% | 1010.8 hPa | 0 mm | 0.45 m/s, 129° | - | - |
| 1778037300 | 12.22° C | 86% | 1010.8 hPa | 0 mm | 3.13 m/s, 201° | - | - |
| 1778036400 | 12.22° C | 85% | 1010.6 hPa | 0 mm | 1.79 m/s, 98° | - | - |
| 1778035500 | 12.22° C | 84% | 1010.6 hPa | 0 mm | 1.34 m/s, 153° | - | - |
| 1778034600 | 12.78° C | 82% | 1010.6 hPa | 0 mm | 1.79 m/s, 155° | - | - |
| 1778033700 | 12.78° C | 81% | 1010.8 hPa | 0 mm | 1.34 m/s, 187° | - | - |
| 1778032800 | 13.33° C | 80% | 1010.6 hPa | 0 mm | 1.34 m/s, 189° | - | - |
| 1778031900 | 13.33° C | 79% | 1010.8 hPa | 0 mm | 0.89 m/s, 170° | - | - |
| 1778031000 | 13.33° C | 79% | 1010.6 hPa | 0 mm | 1.34 m/s, 156° | - | - |
| 1778028300 | 13.89° C | 78% | 1010.2 hPa | 0 mm | 0.89 m/s, 158° | - | - |
| 1778027400 | 13.33° C | 80% | 1009.9 hPa | 0 mm | 0 m/s | - | - |
* Rain since midnight (hover to see other rain measurements)
** Current wind speed in m/s (hover to see current wind gust speed)